sensor_id;sensor_type;location;lat;lon;timestamp;pressure;altitude;pressure_sealevel;temperature;humidity
75767;BME280;64378;55.596;13.014;2023-03-31T00:00:18;99819.25;;;20.66;41.35
75767;BME280;64378;55.596;13.014;2023-03-31T00:02:44;99808.28;;;20.66;41.41
75767;BME280;64378;55.596;13.014;2023-03-31T00:05:10;99811.81;;;20.67;41.56
75767;BME280;64378;55.596;13.014;2023-03-31T00:07:35;99805.53;;;20.66;41.24
75767;BME280;64378;55.596;13.014;2023-03-31T00:10:04;99807.44;;;20.66;41.28
75767;BME280;64378;55.596;13.014;2023-03-31T00:12:30;99806.34;;;20.67;41.33
75767;BME280;64378;55.596;13.014;2023-03-31T00:14:55;99812.91;;;20.66;41.33
75767;BME280;64378;55.596;13.014;2023-03-31T00:17:21;99811.28;;;20.65;41.16
75767;BME280;64378;55.596;13.014;2023-03-31T00:19:46;99814.56;;;20.67;41.30
75767;BME280;64378;55.596;13.014;2023-03-31T00:22:14;99814.56;;;20.67;41.18
75767;BME280;64378;55.596;13.014;2023-03-31T00:24:43;99809.38;;;20.65;41.07
75767;BME280;64378;55.596;13.014;2023-03-31T00:27:09;99809.06;;;20.67;41.28
75767;BME280;64378;55.596;13.014;2023-03-31T00:29:35;99811.81;;;20.67;41.14
75767;BME280;64378;55.596;13.014;2023-03-31T00:32:05;99812.66;;;20.67;41.16
75767;BME280;64378;55.596;13.014;2023-03-31T00:34:30;99803.59;;;20.67;41.00
75767;BME280;64378;55.596;13.014;2023-03-31T00:36:56;99803.59;;;20.67;41.18
75767;BME280;64378;55.596;13.014;2023-03-31T00:39:27;99803.59;;;20.67;41.25
75767;BME280;64378;55.596;13.014;2023-03-31T00:41:56;99803.59;;;20.67;41.28
75767;BME280;64378;55.596;13.014;2023-03-31T00:44:23;99809.91;;;20.67;41.22
75767;BME280;64378;55.596;13.014;2023-03-31T00:49:38;99803.59;;;20.67;41.41
75767;BME280;64378;55.596;13.014;2023-03-31T00:52:24;99797.31;;;20.66;41.15
75767;BME280;64378;55.596;13.014;2023-03-31T00:54:58;99796.47;;;20.66;41.25
75767;BME280;64378;55.596;13.014;2023-03-31T00:57:26;99799.22;;;20.66;41.21
75767;BME280;64378;55.596;13.014;2023-03-31T00:59:56;99797.31;;;20.66;41.17
75767;BME280;64378;55.596;13.014;2023-03-31T01:02:23;99791.00;;;20.66;41.18
75767;BME280;64378;55.596;13.014;2023-03-31T01:04:57;99798.09;;;20.67;41.37
75767;BME280;64378;55.596;13.014;2023-03-31T01:07:31;99798.94;;;20.67;41.38
75767;BME280;64378;55.596;13.014;2023-03-31T01:10:01;99797.31;;;20.66;41.24
75767;BME280;64378;55.596;13.014;2023-03-31T01:12:27;99802.78;;;20.66;41.24
75767;BME280;64378;55.596;13.014;2023-03-31T01:14:54;99798.09;;;20.67;41.28
75767;BME280;64378;55.596;13.014;2023-03-31T01:17:20;99800.31;;;20.65;41.31
75767;BME280;64378;55.596;13.014;2023-03-31T01:20:08;99789.34;;;20.65;41.30
75767;BME280;64378;55.596;13.014;2023-03-31T01:28:03;99787.16;;;20.67;41.28
75767;BME280;64378;55.596;13.014;2023-03-31T01:36:21;99787.44;;;20.65;41.25
75767;BME280;64378;55.596;13.014;2023-03-31T01:47:44;99775.97;;;20.63;41.42
75767;BME280;64378;55.596;13.014;2023-03-31T01:50:25;99780.63;;;20.63;41.27
75767;BME280;64378;55.596;13.014;2023-03-31T01:52:57;99781.44;;;20.63;41.41
75767;BME280;64378;55.596;13.014;2023-03-31T01:55:36;99779.81;;;20.62;41.28
75767;BME280;64378;55.596;13.014;2023-03-31T01:58:17;99786.91;;;20.63;41.34
75767;BME280;64378;55.596;13.014;2023-03-31T02:00:50;99779.81;;;20.62;41.28
75767;BME280;64378;55.596;13.014;2023-03-31T02:03:24;99779.81;;;20.62;41.41
75767;BME280;64378;55.596;13.014;2023-03-31T02:05:56;99779.81;;;20.62;41.34
75767;BME280;64378;55.596;13.014;2023-03-31T02:08:28;99780.63;;;20.63;41.55
75767;BME280;64378;55.596;13.014;2023-03-31T02:10:56;99777.91;;;20.63;41.13
75767;BME280;64378;55.596;13.014;2023-03-31T02:13:25;99771.59;;;20.62;41.37
75767;BME280;64378;55.596;13.014;2023-03-31T02:15:56;99773.22;;;20.63;41.51
75767;BME280;64378;55.596;13.014;2023-03-31T02:18:26;99763.34;;;20.62;41.26
75767;BME280;64378;55.596;13.014;2023-03-31T02:20:56;99765.28;;;20.62;41.39
75767;BME280;64378;55.596;13.014;2023-03-31T02:23:25;99775.16;;;20.63;41.36
75767;BME280;64378;55.596;13.014;2023-03-31T02:26:00;99766.09;;;20.62;41.17
75767;BME280;64378;55.596;13.014;2023-03-31T02:28:26;99763.34;;;20.62;41.41
75767;BME280;64378;55.596;13.014;2023-03-31T02:33:47;99766.09;;;20.62;41.26
75767;BME280;64378;55.596;13.014;2023-03-31T02:36:13;99772.41;;;20.63;41.32
75767;BME280;64378;55.596;13.014;2023-03-31T02:38:45;99775.97;;;20.63;41.21
75767;BME280;64378;55.596;13.014;2023-03-31T02:41:11;99769.66;;;20.63;41.26
75767;BME280;64378;55.596;13.014;2023-03-31T02:43:37;99771.31;;;20.64;41.13
75767;BME280;64378;55.596;13.014;2023-03-31T02:46:02;99771.31;;;20.64;41.07
75767;BME280;64378;55.596;13.014;2023-03-31T02:48:40;99767.72;;;20.63;41.00
75767;BME280;64378;55.596;13.014;2023-03-31T02:56:31;99766.63;;;20.64;41.25
75767;BME280;64378;55.596;13.014;2023-03-31T03:07:46;99758.41;;;20.64;41.33
75767;BME280;64378;55.596;13.014;2023-03-31T03:10:36;99755.66;;;20.64;41.36
75767;BME280;64378;55.596;13.014;2023-03-31T03:13:20;99754.88;;;20.64;41.17
75767;BME280;64378;55.596;13.014;2023-03-31T03:16:00;99747.75;;;20.63;41.02
75767;BME280;64378;55.596;13.014;2023-03-31T03:18:27;99752.13;;;20.64;41.09
75767;BME280;64378;55.596;13.014;2023-03-31T03:20:53;99755.97;;;20.63;41.02
75767;BME280;64378;55.596;13.014;2023-03-31T03:23:18;99752.13;;;20.64;40.89
75767;BME280;64378;55.596;13.014;2023-03-31T03:25:44;99747.75;;;20.63;41.07
75767;BME280;64378;55.596;13.014;2023-03-31T03:28:11;99750.50;;;20.63;41.15
75767;BME280;64378;55.596;13.014;2023-03-31T03:30:36;99746.91;;;20.62;41.19
75767;BME280;64378;55.596;13.014;2023-03-31T03:33:02;99747.75;;;20.63;41.20
75767;BME280;64378;55.596;13.014;2023-03-31T03:35:30;99737.88;;;20.62;41.09
75767;BME280;64378;55.596;13.014;2023-03-31T03:37:56;99742.53;;;20.61;40.98
75767;BME280;64378;55.596;13.014;2023-03-31T03:40:21;99744.47;;;20.61;41.20
75767;BME280;64378;55.596;13.014;2023-03-31T03:42:46;99738.47;;;20.59;41.13
75767;BME280;64378;55.596;13.014;2023-03-31T03:45:12;99751.59;;;20.62;41.02
75767;BME280;64378;55.596;13.014;2023-03-31T03:47:37;99749.97;;;20.61;41.08
75767;BME280;64378;55.596;13.014;2023-03-31T03:50:03;99752.69;;;20.61;41.25
75767;BME280;64378;55.596;13.014;2023-03-31T03:52:29;99754.59;;;20.60;41.02
75767;BME280;64378;55.596;13.014;2023-03-31T03:54:54;99755.44;;;20.61;41.10
75767;BME280;64378;55.596;13.014;2023-03-31T03:57:20;99744.75;;;20.59;41.11
75767;BME280;64378;55.596;13.014;2023-03-31T03:59:46;99757.06;;;20.62;41.01
75767;BME280;64378;55.596;13.014;2023-03-31T04:02:11;99757.34;;;20.60;40.94
75767;BME280;64378;55.596;13.014;2023-03-31T04:04:37;99758.97;;;20.61;41.02
75767;BME280;64378;55.596;13.014;2023-03-31T04:07:02;99749.97;;;20.61;41.25
75767;BME280;64378;55.596;13.014;2023-03-31T04:09:28;99750.75;;;20.61;41.13
75767;BME280;64378;55.596;13.014;2023-03-31T04:11:53;99747.22;;;20.61;41.26
75767;BME280;64378;55.596;13.014;2023-03-31T04:14:19;99746.13;;;20.62;41.09
75767;BME280;64378;55.596;13.014;2023-03-31T04:16:44;99749.97;;;20.61;41.19
75767;BME280;64378;55.596;13.014;2023-03-31T04:19:12;99741.75;;;20.61;41.01
75767;BME280;64378;55.596;13.014;2023-03-31T04:21:38;99743.66;;;20.60;40.81
75767;BME280;64378;55.596;13.014;2023-03-31T04:24:10;99739.28;;;20.59;40.99
75767;BME280;64378;55.596;13.014;2023-03-31T04:26:40;99741.75;;;20.61;41.03
75767;BME280;64378;55.596;13.014;2023-03-31T04:29:13;99736.53;;;20.59;41.02
75767;BME280;64378;55.596;13.014;2023-03-31T04:31:40;99731.34;;;20.58;41.13
75767;BME280;64378;55.596;13.014;2023-03-31T04:34:10;99736.53;;;20.59;41.05
75767;BME280;64378;55.596;13.014;2023-03-31T04:36:43;99738.16;;;20.60;41.10
75767;BME280;64378;55.596;13.014;2023-03-31T04:39:11;99728.31;;;20.59;41.12
75767;BME280;64378;55.596;13.014;2023-03-31T04:41:36;99726.41;;;20.60;40.95
75767;BME280;64378;55.596;13.014;2023-03-31T04:44:02;99725.56;;;20.59;41.04
75767;BME280;64378;55.596;13.014;2023-03-31T04:46:27;99710.88;;;20.50;40.99
75767;BME280;64378;55.596;13.014;2023-03-31T04:48:52;99732.16;;;20.58;41.16
75767;BME280;64378;55.596;13.014;2023-03-31T04:51:18;99724.75;;;20.59;41.00
75767;BME280;64378;55.596;13.014;2023-03-31T04:53:45;99716.53;;;20.59;41.02
75767;BME280;64378;55.596;13.014;2023-03-31T04:56:10;99713.81;;;20.59;41.10
75767;BME280;64378;55.596;13.014;2023-03-31T04:58:36;99704.47;;;20.60;41.17
75767;BME280;64378;55.596;13.014;2023-03-31T05:01:03;99699.00;;;20.60;41.09
75767;BME280;64378;55.596;13.014;2023-03-31T05:03:30;99706.38;;;20.59;40.96
75767;BME280;64378;55.596;13.014;2023-03-31T05:05:56;99714.59;;;20.59;41.10
75767;BME280;64378;55.596;13.014;2023-03-31T05:08:21;99700.69;;;20.56;41.19
75767;BME280;64378;55.596;13.014;2023-03-31T05:10:47;99702.00;;;20.58;41.13
75767;BME280;64378;55.596;13.014;2023-03-31T05:13:12;99702.00;;;20.58;40.98
75767;BME280;64378;55.596;13.014;2023-03-31T05:15:38;99705.56;;;20.59;40.94
75767;BME280;64378;55.596;13.014;2023-03-31T05:18:04;99708.59;;;20.57;40.95
75767;BME280;64378;55.596;13.014;2023-03-31T05:20:29;99695.72;;;20.58;41.01
75767;BME280;64378;55.596;13.014;2023-03-31T05:22:55;99702.00;;;20.58;40.94
75767;BME280;64378;55.596;13.014;2023-03-31T05:25:20;99702.00;;;20.58;41.12
75767;BME280;64378;55.596;13.014;2023-03-31T05:27:47;99698.47;;;20.58;41.17
75767;BME280;64378;55.596;13.014;2023-03-31T05:30:16;99700.69;;;20.56;41.25
75767;BME280;64378;55.596;13.014;2023-03-31T05:32:42;99697.09;;;20.55;41.13
75767;BME280;64378;55.596;13.014;2023-03-31T05:35:09;99702.88;;;20.54;41.06
75767;BME280;64378;55.596;13.014;2023-03-31T05:37:34;99699.03;;;20.55;41.19
75767;BME280;64378;55.596;13.014;2023-03-31T05:40:00;99689.19;;;20.54;41.03
75767;BME280;64378;55.596;13.014;2023-03-31T05:42:25;99693.03;;;20.53;41.40
75767;BME280;64378;55.596;13.014;2023-03-31T05:44:50;99690.28;;;20.53;41.21
75767;BME280;64378;55.596;13.014;2023-03-31T05:47:16;99689.47;;;20.52;41.21
75767;BME280;64378;55.596;13.014;2023-03-31T05:49:42;99688.66;;;20.52;41.22
75767;BME280;64378;55.596;13.014;2023-03-31T05:52:07;99685.91;;;20.52;41.14
75767;BME280;64378;55.596;13.014;2023-03-31T05:54:33;99685.91;;;20.52;41.16
75767;BME280;64378;55.596;13.014;2023-03-31T05:56:59;99685.91;;;20.52;41.03
75767;BME280;64378;55.596;13.014;2023-03-31T05:59:25;99690.59;;;20.51;41.06
75767;BME280;64378;55.596;13.014;2023-03-31T06:01:50;99680.75;;;20.50;41.16
75767;BME280;64378;55.596;13.014;2023-03-31T06:04:15;99680.75;;;20.50;41.07
75767;BME280;64378;55.596;13.014;2023-03-31T06:06:41;99685.13;;;20.51;41.27
75767;BME280;64378;55.596;13.014;2023-03-31T06:09:09;99677.16;;;20.50;41.13
75767;BME280;64378;55.596;13.014;2023-03-31T06:11:37;99686.22;;;20.50;41.04
75767;BME280;64378;55.596;13.014;2023-03-31T06:14:03;99687.03;;;20.51;41.13
75767;BME280;64378;55.596;13.014;2023-03-31T06:16:28;99689.75;;;20.51;40.97
75767;BME280;64378;55.596;13.014;2023-03-31T06:18:54;99681.03;;;20.49;41.10
75767;BME280;64378;55.596;13.014;2023-03-31T06:21:20;99694.72;;;20.49;41.12
75767;BME280;64378;55.596;13.014;2023-03-31T06:23:46;99683.75;;;20.49;41.15
75767;BME280;64378;55.596;13.014;2023-03-31T06:26:13;99679.13;;;20.49;41.13
75767;BME280;64378;55.596;13.014;2023-03-31T06:28:39;99673.63;;;20.49;41.09
75767;BME280;64378;55.596;13.014;2023-03-31T06:31:09;99679.13;;;20.49;41.13
75767;BME280;64378;55.596;13.014;2023-03-31T06:33:37;99679.13;;;20.49;41.13
75767;BME280;64378;55.596;13.014;2023-03-31T06:36:04;99671.16;;;20.48;41.20
75767;BME280;64378;55.596;13.014;2023-03-31T06:38:30;99683.47;;;20.50;40.90
75767;BME280;64378;55.596;13.014;2023-03-31T06:40:56;99685.13;;;20.51;41.12
75767;BME280;64378;55.596;13.014;2023-03-31T06:43:21;99684.28;;;20.51;41.08
75767;BME280;64378;55.596;13.014;2023-03-31T06:45:47;99682.06;;;20.53;41.06
75767;BME280;64378;55.596;13.014;2023-03-31T06:48:12;99678.81;;;20.51;41.05
75767;BME280;64378;55.596;13.014;2023-03-31T06:50:39;99676.28;;;20.54;40.90
75767;BME280;64378;55.596;13.014;2023-03-31T06:53:09;99676.81;;;20.56;40.84
75767;BME280;64378;55.596;13.014;2023-03-31T06:55:35;99679.28;;;20.58;40.96
75767;BME280;64378;55.596;13.014;2023-03-31T06:58:01;99684.75;;;20.58;40.95
75767;BME280;64378;55.596;13.014;2023-03-31T07:00:27;99682.03;;;20.58;41.14
75767;BME280;64378;55.596;13.014;2023-03-31T07:02:53;99683.13;;;20.57;41.28
75767;BME280;64378;55.596;13.014;2023-03-31T07:05:19;99675.44;;;20.59;41.29
75767;BME280;64378;55.596;13.014;2023-03-31T07:07:54;99680.91;;;20.59;41.50
75767;BME280;64378;55.596;13.014;2023-03-31T07:10:20;99681.72;;;20.59;41.22
75767;BME280;64378;55.596;13.014;2023-03-31T07:12:46;99686.41;;;20.59;41.36
75767;BME280;64378;55.596;13.014;2023-03-31T07:15:12;99685.28;;;20.60;41.34
75767;BME280;64378;55.596;13.014;2023-03-31T07:17:37;99682.53;;;20.60;41.39
75767;BME280;64378;55.596;13.014;2023-03-31T07:20:10;99680.59;;;20.60;41.31
75767;BME280;64378;55.596;13.014;2023-03-31T07:22:46;99684.19;;;20.61;41.26
75767;BME280;64378;55.596;13.014;2023-03-31T07:25:14;99681.44;;;20.61;41.29
75767;BME280;64378;55.596;13.014;2023-03-31T07:27:40;99684.97;;;20.61;41.24
75767;BME280;64378;55.596;13.014;2023-03-31T07:30:11;99687.44;;;20.63;41.25
75767;BME280;64378;55.596;13.014;2023-03-31T07:32:37;99689.34;;;20.62;41.23
75767;BME280;64378;55.596;13.014;2023-03-31T07:35:06;99689.88;;;20.64;41.30
75767;BME280;64378;55.596;13.014;2023-03-31T07:37:35;99691.00;;;20.63;41.15
75767;BME280;64378;55.596;13.014;2023-03-31T07:40:01;99692.31;;;20.66;41.05
75767;BME280;64378;55.596;13.014;2023-03-31T07:42:29;99697.00;;;20.65;41.25
75767;BME280;64378;55.596;13.014;2023-03-31T07:44:54;99691.50;;;20.65;41.11
75767;BME280;64378;55.596;13.014;2023-03-31T07:47:20;99700.25;;;20.67;41.06
75767;BME280;64378;55.596;13.014;2023-03-31T07:49:45;99695.88;;;20.66;40.96
75767;BME280;64378;55.596;13.014;2023-03-31T07:52:12;99694.47;;;20.69;41.37
75767;BME280;64378;55.596;13.014;2023-03-31T07:54:37;99695.31;;;20.69;41.12
75767;BME280;64378;55.596;13.014;2023-03-31T07:57:03;99698.84;;;20.70;41.15
75767;BME280;64378;55.596;13.014;2023-03-31T07:59:30;99694.19;;;20.70;41.08
75767;BME280;64378;55.596;13.014;2023-03-31T08:01:55;99698.25;;;20.73;40.99
75767;BME280;64378;55.596;13.014;2023-03-31T08:04:21;99700.22;;;20.72;40.87
75767;BME280;64378;55.596;13.014;2023-03-31T08:06:46;99691.97;;;20.72;40.85
75767;BME280;64378;55.596;13.014;2023-03-31T08:09:12;99697.47;;;20.72;40.92
75767;BME280;64378;55.596;13.014;2023-03-31T08:11:37;99689.25;;;20.72;40.85
75767;BME280;64378;55.596;13.014;2023-03-31T08:14:02;99690.88;;;20.73;40.80
75767;BME280;64378;55.596;13.014;2023-03-31T08:16:28;99694.41;;;20.73;40.84
75767;BME280;64378;55.596;13.014;2023-03-31T08:18:53;99699.09;;;20.73;40.69
75767;BME280;64378;55.596;13.014;2023-03-31T08:21:19;99701.53;;;20.74;40.73
75767;BME280;64378;55.596;13.014;2023-03-31T08:23:44;99706.22;;;20.74;40.80
75767;BME280;64378;55.596;13.014;2023-03-31T08:26:12;99707.03;;;20.74;40.68
75767;BME280;64378;55.596;13.014;2023-03-31T08:28:38;99708.66;;;20.75;40.69
75767;BME280;64378;55.596;13.014;2023-03-31T08:31:05;99709.47;;;20.76;40.75
75767;BME280;64378;55.596;13.014;2023-03-31T08:33:32;99704.81;;;20.76;40.53
75767;BME280;64378;55.596;13.014;2023-03-31T08:36:02;99702.88;;;20.77;40.55
75767;BME280;64378;55.596;13.014;2023-03-31T08:38:28;99696.56;;;20.76;40.67
75767;BME280;64378;55.596;13.014;2023-03-31T08:40:58;99699.84;;;20.78;40.54
75767;BME280;64378;55.596;13.014;2023-03-31T08:43:29;99694.63;;;20.77;40.55
75767;BME280;64378;55.596;13.014;2023-03-31T08:45:57;99702.59;;;20.78;40.61
75767;BME280;64378;55.596;13.014;2023-03-31T08:51:28;99699.00;;;20.78;40.68
75767;BME280;64378;55.596;13.014;2023-03-31T08:54:06;99686.94;;;20.79;40.56
75767;BME280;64378;55.596;13.014;2023-03-31T08:56:39;99691.06;;;20.81;40.65
75767;BME280;64378;55.596;13.014;2023-03-31T08:59:11;99684.75;;;20.81;40.40
75767;BME280;64378;55.596;13.014;2023-03-31T09:01:44;99689.44;;;20.80;40.40
75767;BME280;64378;55.596;13.014;2023-03-31T09:07:15;99695.44;;;20.82;40.38
75767;BME280;64378;55.596;13.014;2023-03-31T09:15:13;99690.75;;;20.83;40.32
75767;BME280;64378;55.596;13.014;2023-03-31T09:17:43;99686.38;;;20.82;40.49
75767;BME280;64378;55.596;13.014;2023-03-31T09:20:17;99684.16;;;20.84;40.36
75767;BME280;64378;55.596;13.014;2023-03-31T09:22:47;99682.53;;;20.83;40.31
75767;BME280;64378;55.596;13.014;2023-03-31T09:25:18;99683.91;;;20.85;40.49
75767;BME280;64378;55.596;13.014;2023-03-31T09:27:45;99685.81;;;20.85;40.64
75767;BME280;64378;55.596;13.014;2023-03-31T09:30:26;99674.03;;;20.84;40.45
75767;BME280;64378;55.596;13.014;2023-03-31T09:33:02;99675.34;;;20.87;40.79
75767;BME280;64378;55.596;13.014;2023-03-31T09:35:29;99673.72;;;20.86;40.46
75767;BME280;64378;55.596;13.014;2023-03-31T09:37:58;99673.44;;;20.87;40.67
75767;BME280;64378;55.596;13.014;2023-03-31T09:40:25;99665.75;;;20.89;40.53
75767;BME280;64378;55.596;13.014;2023-03-31T09:43:05;99672.56;;;20.92;40.42
75767;BME280;64378;55.596;13.014;2023-03-31T09:45:31;99674.72;;;20.95;40.38
75767;BME280;64378;55.596;13.014;2023-03-31T09:48:01;99672.50;;;20.97;40.28
75767;BME280;64378;55.596;13.014;2023-03-31T09:50:29;99672.19;;;20.98;40.09
75767;BME280;64378;55.596;13.014;2023-03-31T09:52:56;99660.63;;;21.01;40.21
75767;BME280;64378;55.596;13.014;2023-03-31T09:58:11;99667.69;;;21.07;40.27
75767;BME280;64378;55.596;13.014;2023-03-31T10:00:40;99652.84;;;21.08;39.91
75767;BME280;64378;55.596;13.014;2023-03-31T10:03:06;99667.88;;;21.11;40.00
75767;BME280;64378;55.596;13.014;2023-03-31T10:05:35;99645.94;;;21.11;39.94
75767;BME280;64378;55.596;13.014;2023-03-31T10:10:43;99648.41;;;21.12;40.10
75767;BME280;64378;55.596;13.014;2023-03-31T10:13:15;99640.69;;;21.14;40.05
75767;BME280;64378;55.596;13.014;2023-03-31T10:15:41;99639.56;;;21.15;40.04
75767;BME280;64378;55.596;13.014;2023-03-31T10:18:12;99636.03;;;21.15;40.10
75767;BME280;64378;55.596;13.014;2023-03-31T10:20:42;99639.28;;;21.17;40.10
75767;BME280;64378;55.596;13.014;2023-03-31T10:23:28;99638.16;;;21.18;40.00
75767;BME280;64378;55.596;13.014;2023-03-31T10:25:54;99638.44;;;21.16;40.12
75767;BME280;64378;55.596;13.014;2023-03-31T10:28:20;99640.09;;;21.17;39.90
75767;BME280;64378;55.596;13.014;2023-03-31T10:30:57;99638.69;;;21.20;39.91
75767;BME280;64378;55.596;13.014;2023-03-31T10:33:28;99644.69;;;21.22;39.94
75767;BME280;64378;55.596;13.014;2023-03-31T10:35:56;99638.91;;;21.23;39.91
75767;BME280;64378;55.596;13.014;2023-03-31T10:38:29;99646.00;;;21.24;39.97
75767;BME280;64378;55.596;13.014;2023-03-31T10:40:58;99649.59;;;21.25;39.99
75767;BME280;64378;55.596;13.014;2023-03-31T10:43:29;99647.66;;;21.25;39.84
75767;BME280;64378;55.596;13.014;2023-03-31T10:46:00;99646.53;;;21.26;39.88
75767;BME280;64378;55.596;13.014;2023-03-31T10:50:51;99645.44;;;21.27;39.86
75767;BME280;64378;55.596;13.014;2023-03-31T10:53:18;99645.13;;;21.29;39.72
75767;BME280;64378;55.596;13.014;2023-03-31T10:58:53;99644.31;;;21.28;39.67
75767;BME280;64378;55.596;13.014;2023-03-31T11:06:56;99643.50;;;21.28;39.74
75767;BME280;64378;55.596;13.014;2023-03-31T11:12:30;99635.56;;;21.26;39.80
75767;BME280;64378;55.596;13.014;2023-03-31T11:15:28;99643.50;;;21.28;39.86
75767;BME280;64378;55.596;13.014;2023-03-31T11:23:41;99646.25;;;21.28;39.77
75767;BME280;64378;55.596;13.014;2023-03-31T11:26:15;99657.22;;;21.28;39.64
75767;BME280;64378;55.596;13.014;2023-03-31T11:45:24;99639.13;;;21.27;39.65
75767;BME280;64378;55.596;13.014;2023-03-31T11:47:55;99639.41;;;21.25;39.65
75767;BME280;64378;55.596;13.014;2023-03-31T11:50:29;99642.16;;;21.25;39.64
75767;BME280;64378;55.596;13.014;2023-03-31T11:52:59;99631.72;;;21.27;39.56
75767;BME280;64378;55.596;13.014;2023-03-31T11:55:28;99646.25;;;21.28;39.58
75767;BME280;64378;55.596;13.014;2023-03-31T12:00:26;99638.03;;;21.28;39.46
75767;BME280;64378;55.596;13.014;2023-03-31T12:02:58;99633.66;;;21.27;39.51
75767;BME280;64378;55.596;13.014;2023-03-31T12:05:27;99631.72;;;21.27;39.43
75767;BME280;64378;55.596;13.014;2023-03-31T12:11:04;99635.56;;;21.26;39.47
75767;BME280;64378;55.596;13.014;2023-03-31T12:13:52;99632.03;;;21.26;39.67
75767;BME280;64378;55.596;13.014;2023-03-31T12:16:34;99632.03;;;21.26;39.44
75767;BME280;64378;55.596;13.014;2023-03-31T12:21:47;99632.03;;;21.26;39.76
75767;BME280;64378;55.596;13.014;2023-03-31T12:24:13;99640.53;;;21.24;39.48
75767;BME280;64378;55.596;13.014;2023-03-31T12:27:23;99632.03;;;21.26;39.67
75767;BME280;64378;55.596;13.014;2023-03-31T12:30:00;99632.31;;;21.24;39.54
75767;BME280;64378;55.596;13.014;2023-03-31T12:32:30;99630.38;;;21.25;39.69
75767;BME280;64378;55.596;13.014;2023-03-31T12:37:51;99629.28;;;21.26;39.37
75767;BME280;64378;55.596;13.014;2023-03-31T12:40:39;99621.31;;;21.24;39.44
75767;BME280;64378;55.596;13.014;2023-03-31T12:48:59;99626.00;;;21.24;39.47
75767;BME280;64378;55.596;13.014;2023-03-31T12:57:01;99621.31;;;21.24;39.58
75767;BME280;64378;55.596;13.014;2023-03-31T12:59:36;99622.44;;;21.23;39.61
75767;BME280;64378;55.596;13.014;2023-03-31T13:04:39;99616.16;;;21.23;39.36
75767;BME280;64378;55.596;13.014;2023-03-31T13:07:34;99613.69;;;21.21;39.36
75767;BME280;64378;55.596;13.014;2023-03-31T13:12:38;99614.53;;;21.22;39.62
75767;BME280;64378;55.596;13.014;2023-03-31T13:15:04;99612.06;;;21.20;39.69
75767;BME280;64378;55.596;13.014;2023-03-31T13:17:37;99616.44;;;21.21;39.31
75767;BME280;64378;55.596;13.014;2023-03-31T13:23:17;99612.06;;;21.20;39.51
75767;BME280;64378;55.596;13.014;2023-03-31T13:25:45;99611.25;;;21.20;39.64
75767;BME280;64378;55.596;13.014;2023-03-31T13:33:10;99609.63;;;21.19;39.55
75767;BME280;64378;55.596;13.014;2023-03-31T13:35:39;99610.44;;;21.19;39.55
75767;BME280;64378;55.596;13.014;2023-03-31T13:49:54;99604.66;;;21.21;39.65
75767;BME280;64378;55.596;13.014;2023-03-31T13:52:42;99604.13;;;21.19;39.67
75767;BME280;64378;55.596;13.014;2023-03-31T13:58:21;99612.06;;;21.20;39.69
75767;BME280;64378;55.596;13.014;2023-03-31T14:06:37;99603.31;;;21.18;39.61
75767;BME280;64378;55.596;13.014;2023-03-31T14:09:08;99608.78;;;21.18;39.71
75767;BME280;64378;55.596;13.014;2023-03-31T14:11:34;99613.16;;;21.19;39.74
75767;BME280;64378;55.596;13.014;2023-03-31T14:14:13;99611.53;;;21.18;39.71
75767;BME280;64378;55.596;13.014;2023-03-31T14:16:44;99616.75;;;21.20;39.64
75767;BME280;64378;55.596;13.014;2023-03-31T14:27:51;99609.63;;;21.19;39.40
75767;BME280;64378;55.596;13.014;2023-03-31T14:33:43;99608.78;;;21.18;39.51
75767;BME280;64378;55.596;13.014;2023-03-31T14:36:32;99609.63;;;21.19;39.58
75767;BME280;64378;55.596;13.014;2023-03-31T14:39:04;99602.50;;;21.18;39.48
75767;BME280;64378;55.596;13.014;2023-03-31T14:41:31;99608.50;;;21.20;39.59
75767;BME280;64378;55.596;13.014;2023-03-31T14:44:00;99606.88;;;21.19;39.59
75767;BME280;64378;55.596;13.014;2023-03-31T14:46:30;99609.63;;;21.19;39.40
75767;BME280;64378;55.596;13.014;2023-03-31T14:48:58;99613.16;;;21.19;39.66
75767;BME280;64378;55.596;13.014;2023-03-31T14:51:30;99603.31;;;21.18;39.53
75767;BME280;64378;55.596;13.014;2023-03-31T14:53:56;99598.66;;;21.19;39.26
75767;BME280;64378;55.596;13.014;2023-03-31T14:56:30;99607.41;;;21.21;39.60
75767;BME280;64378;55.596;13.014;2023-03-31T14:58:59;99608.19;;;21.21;39.81
75767;BME280;64378;55.596;13.014;2023-03-31T15:01:29;99607.41;;;21.21;39.50
75767;BME280;64378;55.596;13.014;2023-03-31T15:03:59;99613.69;;;21.21;39.54
75767;BME280;64378;55.596;13.014;2023-03-31T15:06:25;99615.63;;;21.21;39.74
75767;BME280;64378;55.596;13.014;2023-03-31T15:08:55;99619.47;;;21.20;39.40
75767;BME280;64378;55.596;13.014;2023-03-31T15:11:21;99623.88;;;21.21;39.58
75767;BME280;64378;55.596;13.014;2023-03-31T15:13:49;99622.50;;;21.18;39.34
75767;BME280;64378;55.596;13.014;2023-03-31T15:16:35;99617.84;;;21.19;39.28
75767;BME280;64378;55.596;13.014;2023-03-31T15:19:20;99625.25;;;21.18;39.29
75767;BME280;64378;55.596;13.014;2023-03-31T15:21:53;99626.38;;;21.17;39.19
75767;BME280;64378;55.596;13.014;2023-03-31T15:24:20;99635.69;;;21.16;39.15
75767;BME280;64378;55.596;13.014;2023-03-31T15:26:58;99627.78;;;21.15;39.27
75767;BME280;64378;55.596;13.014;2023-03-31T15:31:57;99641.28;;;21.11;38.94
75767;BME280;64378;55.596;13.014;2023-03-31T15:34:29;99637.44;;;21.12;38.92
75767;BME280;64378;55.596;13.014;2023-03-31T15:36:57;99644.84;;;21.12;39.00
75767;BME280;64378;55.596;13.014;2023-03-31T15:39:29;99638.81;;;21.10;38.87
75767;BME280;64378;55.596;13.014;2023-03-31T15:41:57;99636.69;;;21.07;38.79
75767;BME280;64378;55.596;13.014;2023-03-31T15:47:15;99644.09;;;21.06;39.02